createdAt,value
2019-05-22T00:00:24.722Z,12.32
2019-05-22T00:01:24.715Z,12.32
2019-05-22T00:02:24.706Z,12.28
2019-05-22T00:03:27.910Z,12.19
2019-05-22T00:04:24.681Z,12.20
2019-05-22T00:05:24.668Z,12.24
2019-05-22T00:06:24.661Z,12.20
2019-05-22T00:07:24.649Z,12.19
2019-05-22T00:08:24.686Z,12.24
2019-05-22T00:09:24.654Z,12.28
2019-05-22T00:10:24.612Z,12.12
2019-05-22T00:11:24.612Z,12.23
2019-05-22T00:12:24.615Z,12.13
2019-05-22T00:13:24.574Z,12.13
2019-05-22T00:14:24.592Z,12.10
2019-05-22T00:15:24.570Z,12.16
2019-05-22T00:16:24.543Z,12.19
2019-05-22T00:17:24.529Z,12.21
2019-05-22T00:18:24.524Z,12.17
2019-05-22T00:19:24.533Z,12.17
2019-05-22T00:20:24.519Z,12.21
2019-05-22T00:21:24.506Z,12.23
2019-05-22T00:22:24.474Z,12.13
2019-05-22T00:23:24.467Z,12.13
2019-05-22T00:24:26.412Z,12.09
2019-05-22T00:25:24.454Z,12.12
2019-05-22T00:26:24.427Z,12.14
2019-05-22T00:27:24.486Z,12.13
2019-05-22T00:28:24.407Z,12.07
2019-05-22T00:29:26.570Z,12.12
2019-05-22T00:30:24.440Z,12.19
2019-05-22T00:31:24.380Z,12.09
2019-05-22T00:32:24.368Z,12.10
2019-05-22T00:33:24.357Z,12.05
2019-05-22T00:34:24.392Z,12.12
2019-05-22T00:35:24.585Z,12.10
2019-05-22T00:36:24.363Z,12.07
2019-05-22T00:37:24.383Z,12.16
2019-05-22T00:38:24.292Z,12.12
2019-05-22T00:39:24.343Z,12.12
2019-05-22T00:40:24.270Z,12.12
2019-05-22T00:41:24.263Z,12.10
2019-05-22T00:42:24.306Z,12.14
2019-05-22T00:43:24.244Z,12.10
2019-05-22T00:44:24.245Z,12.09
2019-05-22T00:45:24.210Z,12.12
2019-05-22T00:46:24.266Z,12.17
2019-05-22T00:47:24.198Z,12.12
2019-05-22T00:48:24.184Z,12.10
2019-05-22T00:49:24.209Z,12.07
2019-05-22T00:50:24.152Z,12.17
2019-05-22T00:51:24.153Z,12.10
2019-05-22T00:52:24.191Z,12.09
2019-05-22T00:53:24.127Z,12.13
2019-05-22T00:54:24.148Z,12.14
2019-05-22T00:55:24.140Z,12.07
2019-05-22T00:56:24.137Z,12.10
2019-05-22T00:57:24.085Z,12.10
2019-05-22T00:58:24.064Z,12.09
2019-05-22T00:59:24.088Z,12.12
2019-05-22T01:00:24.056Z,12.12
2019-05-22T01:01:24.040Z,12.07
2019-05-22T01:02:24.024Z,12.09
2019-05-22T01:03:24.032Z,12.10
2019-05-22T01:04:24.028Z,12.13
2019-05-22T01:05:24.052Z,12.12
2019-05-22T01:06:23.978Z,12.17
2019-05-22T01:07:23.969Z,12.19
2019-05-22T01:08:23.963Z,12.07
2019-05-22T01:09:23.940Z,12.10
2019-05-22T01:10:25.287Z,12.10
2019-05-22T01:11:23.925Z,12.05
2019-05-22T01:12:24.172Z,12.05
2019-05-22T01:13:23.924Z,12.16
2019-05-22T01:14:25.408Z,12.20
2019-05-22T01:15:23.903Z,12.02
2019-05-22T01:16:23.865Z,12.05
2019-05-22T01:17:23.882Z,12.16
2019-05-22T01:18:23.841Z,12.14
2019-05-22T01:19:23.840Z,12.01
2019-05-22T01:20:23.886Z,12.13
2019-05-22T01:21:23.875Z,12.09
2019-05-22T01:22:23.793Z,12.01
2019-05-22T01:23:23.787Z,12.01
2019-05-22T01:24:23.778Z,11.98
2019-05-22T01:25:23.795Z,12.04
2019-05-22T01:26:23.794Z,11.99
2019-05-22T01:27:23.735Z,11.99
2019-05-22T01:28:23.725Z,12.04
2019-05-22T01:29:23.761Z,11.95
2019-05-22T01:30:25.294Z,11.98
2019-05-22T01:31:25.370Z,11.98
2019-05-22T01:32:23.685Z,12.01
2019-05-22T01:33:23.677Z,11.95
2019-05-22T01:34:25.373Z,11.95
2019-05-22T01:35:23.658Z,11.99
2019-05-22T01:36:23.640Z,11.90
2019-05-22T01:37:23.676Z,11.86
2019-05-22T01:38:25.290Z,11.86
2019-05-22T01:39:25.323Z,11.85
2019-05-22T01:40:24.657Z,11.80
2019-05-22T01:41:23.593Z,11.86
2019-05-22T01:42:25.295Z,11.83
2019-05-22T01:43:23.564Z,11.79
2019-05-22T01:44:23.555Z,11.76
2019-05-22T01:45:23.601Z,11.78
2019-05-22T01:46:23.533Z,11.78
2019-05-22T01:47:25.326Z,11.73
2019-05-22T01:48:23.510Z,11.78
2019-05-22T01:49:23.493Z,11.72
2019-05-22T01:50:23.490Z,11.78
2019-05-22T01:51:25.285Z,11.76
2019-05-22T01:52:23.572Z,11.73
2019-05-22T01:53:23.443Z,11.75
2019-05-22T01:54:23.446Z,11.75
2019-05-22T01:55:25.294Z,11.76
2019-05-22T01:56:23.445Z,11.75
2019-05-22T01:57:25.313Z,11.73
2019-05-22T01:58:23.410Z,11.69
2019-05-22T01:59:23.378Z,11.72
2019-05-22T02:00:25.284Z,11.70
2019-05-22T02:01:23.370Z,11.69
2019-05-22T02:02:23.351Z,11.67
2019-05-22T02:03:23.337Z,11.69
2019-05-22T02:04:23.347Z,11.67
2019-05-22T02:05:23.316Z,11.62
2019-05-22T02:06:23.362Z,11.65
2019-05-22T02:07:23.330Z,11.67
2019-05-22T02:08:23.298Z,11.70
2019-05-22T02:09:23.286Z,11.67
2019-05-22T02:10:24.341Z,11.61
2019-05-22T02:11:23.253Z,11.62
2019-05-22T02:12:23.232Z,11.64
2019-05-22T02:13:23.225Z,11.54
2019-05-22T02:14:23.233Z,11.49
2019-05-22T02:15:23.209Z,11.60
2019-05-22T02:16:23.207Z,11.47
2019-05-22T02:17:23.184Z,11.52
2019-05-22T02:18:23.168Z,11.54
2019-05-22T02:19:23.228Z,11.49
2019-05-22T02:20:23.166Z,11.60
2019-05-22T02:21:23.136Z,11.52
2019-05-22T02:22:23.186Z,11.57
2019-05-22T02:23:23.107Z,11.57
2019-05-22T02:24:23.122Z,11.46
2019-05-22T02:25:23.085Z,11.55
2019-05-22T02:26:23.069Z,11.54
2019-05-22T02:27:23.084Z,11.54
2019-05-22T02:28:23.055Z,11.54
2019-05-22T02:29:23.075Z,11.52
2019-05-22T02:30:23.032Z,11.51
2019-05-22T02:31:23.045Z,11.49
2019-05-22T02:32:23.016Z,11.46
2019-05-22T02:33:23.043Z,11.49
2019-05-22T02:34:23.032Z,11.49
2019-05-22T02:35:22.988Z,11.51
2019-05-22T02:36:22.981Z,11.49
2019-05-22T02:37:22.955Z,11.49
2019-05-22T02:38:22.941Z,11.46
2019-05-22T02:39:22.979Z,11.46
2019-05-22T02:40:22.919Z,11.46
2019-05-22T02:41:22.908Z,11.49
2019-05-22T02:42:22.937Z,11.52
2019-05-22T02:43:22.911Z,11.46
2019-05-22T02:44:22.909Z,11.49
2019-05-22T02:45:22.862Z,11.49
2019-05-22T02:46:22.851Z,11.43
2019-05-22T02:47:22.846Z,11.42
2019-05-22T02:48:22.828Z,11.54
2019-05-22T02:49:22.869Z,11.43
2019-05-22T02:50:22.808Z,11.51
2019-05-22T02:51:22.829Z,11.52
2019-05-22T02:52:22.778Z,11.49
2019-05-22T02:53:22.851Z,11.44
2019-05-22T02:54:22.807Z,11.49
2019-05-22T02:55:22.765Z,11.44
2019-05-22T02:56:22.733Z,11.42
2019-05-22T02:57:22.738Z,11.39
2019-05-22T02:58:22.766Z,11.39
2019-05-22T02:59:22.742Z,11.39
2019-05-22T03:00:22.692Z,11.43
2019-05-22T03:01:22.721Z,11.44
2019-05-22T03:02:22.674Z,11.51
2019-05-22T03:03:22.650Z,11.51
2019-05-22T03:04:22.669Z,11.43
2019-05-22T03:05:22.633Z,11.44
2019-05-22T03:06:22.654Z,11.43
2019-05-22T03:07:22.615Z,11.44
2019-05-22T03:08:22.591Z,11.44
2019-05-22T03:09:22.630Z,11.39
2019-05-22T03:10:22.575Z,11.39
2019-05-22T03:11:22.568Z,11.42
2019-05-22T03:12:22.562Z,11.40
2019-05-22T03:13:22.533Z,11.37
2019-05-22T03:14:22.568Z,11.39
2019-05-22T03:15:22.530Z,11.40
2019-05-22T03:16:22.514Z,11.42
2019-05-22T03:17:22.495Z,11.43
2019-05-22T03:18:22.494Z,11.43
2019-05-22T03:19:24.397Z,11.42
2019-05-22T03:20:22.467Z,11.47
2019-05-22T03:21:22.454Z,11.42
2019-05-22T03:22:22.497Z,11.44
2019-05-22T03:23:22.461Z,11.44
2019-05-22T03:24:22.433Z,11.42
2019-05-22T03:25:22.402Z,11.36
2019-05-22T03:26:22.412Z,11.40
2019-05-22T03:27:22.404Z,11.35
2019-05-22T03:28:22.932Z,11.29
2019-05-22T03:29:22.382Z,11.25
2019-05-22T03:30:22.580Z,11.27
2019-05-22T03:31:22.346Z,11.25
2019-05-22T03:32:22.322Z,11.17
2019-05-22T03:33:22.365Z,11.27
2019-05-22T03:34:22.333Z,11.24
2019-05-22T03:35:22.349Z,11.19
2019-05-22T03:36:22.356Z,11.15
2019-05-22T03:37:22.308Z,11.14
2019-05-22T03:38:22.289Z,11.09
2019-05-22T03:39:22.296Z,11.14
2019-05-22T03:40:23.898Z,11.00
2019-05-22T03:41:22.291Z,11.11
2019-05-22T03:42:22.246Z,11.11
2019-05-22T03:43:22.222Z,11.02
2019-05-22T03:44:22.236Z,10.96
2019-05-22T03:45:22.194Z,10.92
2019-05-22T03:46:22.198Z,11.00
2019-05-22T03:47:22.196Z,10.82
2019-05-22T03:48:22.158Z,10.99
2019-05-22T03:49:31.013Z,10.86
2019-05-22T03:50:23.670Z,10.92
2019-05-22T03:51:22.161Z,10.85
2019-05-22T03:52:22.165Z,10.89
2019-05-22T03:53:23.222Z,10.84
2019-05-22T03:54:22.083Z,10.88
2019-05-22T03:55:22.101Z,10.94
2019-05-22T03:56:22.102Z,10.76
2019-05-22T03:57:22.936Z,10.85
2019-05-22T03:58:22.050Z,10.86
2019-05-22T03:59:22.411Z,10.86
2019-05-22T04:00:22.067Z,10.79
2019-05-22T04:01:22.003Z,10.78
2019-05-22T04:02:22.149Z,10.73
2019-05-22T04:03:21.976Z,10.88
2019-05-22T04:04:21.964Z,10.81
2019-05-22T04:05:22.292Z,10.78
2019-05-22T04:06:21.956Z,10.64
2019-05-22T04:07:21.938Z,10.76
2019-05-22T04:08:21.937Z,10.70
2019-05-22T04:09:21.935Z,10.76
2019-05-22T04:10:21.948Z,10.78
2019-05-22T04:11:21.937Z,10.81
2019-05-22T04:12:22.542Z,10.70
2019-05-22T04:13:22.053Z,10.70
2019-05-22T04:14:21.911Z,10.71
2019-05-22T04:15:22.699Z,10.78
2019-05-22T04:16:21.854Z,10.78
2019-05-22T04:17:22.419Z,10.68
2019-05-22T04:18:22.976Z,10.73
2019-05-22T04:19:21.826Z,10.71
2019-05-22T04:20:21.823Z,10.63
2019-05-22T04:21:21.784Z,10.68
2019-05-22T04:22:21.782Z,10.66
2019-05-22T04:23:21.750Z,10.66
2019-05-22T04:24:21.742Z,10.68
2019-05-22T04:25:21.762Z,10.61
2019-05-22T04:26:21.727Z,10.66
2019-05-22T04:27:21.743Z,10.68
2019-05-22T04:28:21.707Z,10.76
2019-05-22T04:29:23.466Z,10.70
2019-05-22T04:30:23.470Z,10.71
2019-05-22T04:31:21.673Z,10.64
2019-05-22T04:32:21.656Z,10.74
2019-05-22T04:33:21.663Z,10.78
2019-05-22T04:34:21.663Z,10.79
2019-05-22T04:35:21.772Z,10.66
2019-05-22T04:36:21.620Z,10.67
2019-05-22T04:37:21.610Z,10.70
2019-05-22T04:38:21.594Z,10.63
2019-05-22T04:39:21.637Z,10.78
2019-05-22T04:40:21.651Z,10.79
2019-05-22T04:41:21.571Z,10.81
2019-05-22T04:42:21.569Z,10.86
2019-05-22T04:43:21.549Z,10.79
2019-05-22T04:44:21.549Z,10.88
2019-05-22T04:45:21.572Z,10.81
2019-05-22T04:46:21.507Z,10.79
2019-05-22T04:47:21.568Z,10.81
2019-05-22T04:48:21.491Z,10.78
2019-05-22T04:49:21.487Z,10.82
2019-05-22T04:50:21.492Z,10.76
2019-05-22T04:51:21.462Z,10.70
2019-05-22T04:52:21.434Z,10.79
2019-05-22T04:53:21.465Z,10.78
2019-05-22T04:54:21.424Z,10.78
2019-05-22T04:55:21.526Z,10.85
2019-05-22T04:56:21.410Z,10.76
2019-05-22T04:57:21.386Z,10.82
2019-05-22T04:58:21.371Z,10.86
2019-05-22T04:59:21.364Z,10.84
2019-05-22T05:00:21.406Z,10.81
2019-05-22T05:01:21.460Z,10.82
2019-05-22T05:02:21.355Z,10.82
2019-05-22T05:03:21.342Z,10.81
2019-05-22T05:04:21.317Z,10.79
2019-05-22T05:05:21.326Z,10.82
2019-05-22T05:06:21.353Z,10.82
2019-05-22T05:07:21.321Z,10.73
2019-05-22T05:08:21.260Z,10.85
2019-05-22T05:09:21.279Z,10.81
2019-05-22T05:10:22.943Z,10.81
2019-05-22T05:11:21.235Z,10.91
2019-05-22T05:12:21.378Z,10.86
2019-05-22T05:13:21.224Z,10.88
2019-05-22T05:14:26.152Z,10.94
2019-05-22T05:15:21.214Z,10.82
2019-05-22T05:16:21.179Z,10.86
2019-05-22T05:17:21.170Z,10.92
2019-05-22T05:18:21.180Z,10.91
2019-05-22T05:19:22.142Z,10.84
2019-05-22T05:20:22.802Z,10.84
2019-05-22T05:21:21.195Z,10.84
2019-05-22T05:22:21.130Z,10.96
2019-05-22T05:23:21.103Z,10.99
2019-05-22T05:24:21.095Z,10.92
2019-05-22T05:25:21.763Z,10.94
2019-05-22T05:26:21.919Z,10.92
2019-05-22T05:27:21.918Z,10.94
2019-05-22T05:28:21.061Z,11.00
2019-05-22T05:29:21.034Z,10.85
2019-05-22T05:30:21.054Z,10.85
2019-05-22T05:31:21.004Z,10.99
2019-05-22T05:32:21.113Z,10.92
2019-05-22T05:33:21.025Z,10.91
2019-05-22T05:34:21.034Z,11.00
2019-05-22T05:35:20.998Z,10.96
2019-05-22T05:36:20.964Z,10.91
2019-05-22T05:37:20.981Z,10.99
2019-05-22T05:38:20.945Z,10.88
2019-05-22T05:39:20.916Z,10.89
2019-05-22T05:40:20.978Z,10.97
2019-05-22T05:41:20.909Z,10.81
2019-05-22T05:42:20.894Z,10.85
2019-05-22T05:43:20.884Z,11.02
2019-05-22T05:44:20.868Z,10.97
2019-05-22T05:45:20.894Z,10.97
2019-05-22T05:46:20.963Z,10.97
2019-05-22T05:47:20.829Z,10.94
2019-05-22T05:48:20.906Z,11.00
2019-05-22T05:49:20.864Z,11.00
2019-05-22T05:50:20.801Z,10.88
2019-05-22T05:51:20.808Z,11.02
2019-05-22T05:52:20.766Z,11.07
2019-05-22T05:53:20.808Z,10.88
2019-05-22T05:54:20.762Z,10.94
2019-05-22T05:55:20.739Z,11.03
2019-05-22T05:56:20.801Z,10.99
2019-05-22T05:57:20.727Z,11.10
2019-05-22T05:58:20.831Z,11.10
2019-05-22T05:59:22.886Z,11.09
2019-05-22T06:00:20.686Z,11.10
2019-05-22T06:01:21.000Z,11.24
2019-05-22T06:02:20.694Z,11.21
2019-05-22T06:03:20.675Z,11.14
2019-05-22T06:04:33.617Z,11.09
2019-05-22T06:05:21.620Z,11.09
2019-05-22T06:06:20.636Z,11.21
2019-05-22T06:07:20.660Z,11.17
2019-05-22T06:08:20.602Z,11.14
2019-05-22T06:09:20.604Z,11.15
2019-05-22T06:10:20.583Z,11.25
2019-05-22T06:11:21.208Z,11.21
2019-05-22T06:12:20.546Z,11.15
2019-05-22T06:13:20.539Z,11.07
2019-05-22T06:14:20.558Z,11.18
2019-05-22T06:15:20.691Z,11.09
2019-05-22T06:16:20.503Z,11.17
2019-05-22T06:17:20.554Z,11.14
2019-05-22T06:18:20.490Z,11.19
2019-05-22T06:19:20.480Z,11.17
2019-05-22T06:20:20.472Z,11.21
2019-05-22T06:21:20.559Z,11.18
2019-05-22T06:22:20.485Z,11.11
2019-05-22T06:23:20.425Z,11.21
2019-05-22T06:24:20.408Z,11.36
2019-05-22T06:25:20.408Z,11.27
2019-05-22T06:26:20.400Z,11.35
2019-05-22T06:27:20.416Z,11.33
2019-05-22T06:28:20.364Z,11.18
2019-05-22T06:29:22.187Z,11.14
2019-05-22T06:30:20.373Z,11.29
2019-05-22T06:31:20.380Z,11.22
2019-05-22T06:32:21.200Z,11.36
2019-05-22T06:33:20.345Z,11.22
2019-05-22T06:34:20.294Z,11.36
2019-05-22T06:35:20.353Z,11.28
2019-05-22T06:36:20.273Z,11.27
2019-05-22T06:37:20.290Z,11.35
2019-05-22T06:38:21.208Z,11.29
2019-05-22T06:39:20.266Z,11.33
2019-05-22T06:40:20.244Z,11.28
2019-05-22T06:41:20.224Z,11.36
2019-05-22T06:42:20.266Z,11.37
2019-05-22T06:43:27.718Z,11.37
2019-05-22T06:44:20.214Z,11.36
2019-05-22T06:45:20.186Z,11.42
2019-05-22T06:46:20.217Z,11.42
2019-05-22T06:47:20.162Z,11.33
2019-05-22T06:48:20.156Z,11.35
2019-05-22T06:49:20.172Z,11.43
2019-05-22T06:50:20.175Z,11.55
2019-05-22T06:51:20.142Z,11.43
2019-05-22T06:52:20.134Z,11.54
2019-05-22T06:53:20.082Z,11.51
2019-05-22T06:54:20.130Z,11.43
2019-05-22T06:55:20.066Z,11.47
2019-05-22T06:56:23.559Z,11.54
2019-05-22T06:57:20.046Z,11.60
2019-05-22T06:58:20.137Z,11.70
2019-05-22T06:59:20.026Z,11.51
2019-05-22T07:00:21.386Z,11.42
2019-05-22T07:01:20.010Z,11.47
2019-05-22T07:02:19.990Z,11.42
2019-05-22T07:03:19.978Z,11.44
2019-05-22T07:04:19.962Z,11.44
2019-05-22T07:05:19.998Z,11.44
2019-05-22T07:06:20.194Z,11.44
2019-05-22T07:07:19.947Z,11.49
2019-05-22T07:08:19.928Z,11.55
2019-05-22T07:09:19.913Z,11.47
2019-05-22T07:10:20.770Z,11.52
2019-05-22T07:11:19.903Z,11.44
2019-05-22T07:12:19.883Z,11.51
2019-05-22T07:13:19.940Z,11.46
2019-05-22T07:14:19.890Z,11.57
2019-05-22T07:15:19.898Z,11.61
2019-05-22T07:16:19.846Z,11.60
2019-05-22T07:17:19.887Z,11.61
2019-05-22T07:18:19.867Z,11.62
2019-05-22T07:19:19.832Z,11.72
2019-05-22T07:20:19.812Z,11.85
2019-05-22T07:21:33.131Z,11.91
2019-05-22T07:22:20.766Z,11.80
2019-05-22T07:23:19.788Z,11.82
2019-05-22T07:24:19.771Z,11.94
2019-05-22T07:25:19.747Z,11.94
2019-05-22T07:26:20.908Z,11.99
2019-05-22T07:27:19.718Z,11.95
2019-05-22T07:28:19.694Z,11.88
2019-05-22T07:29:19.702Z,11.96
2019-05-22T07:30:19.678Z,11.80
2019-05-22T07:31:20.296Z,11.88
2019-05-22T07:32:20.134Z,11.82
2019-05-22T07:33:20.268Z,11.78
2019-05-22T07:34:19.782Z,11.90
2019-05-22T07:35:19.862Z,11.91
2019-05-22T07:36:19.948Z,12.01
2019-05-22T07:37:20.033Z,12.16
2019-05-22T07:38:19.737Z,12.21
2019-05-22T07:39:19.848Z,12.20
2019-05-22T07:40:20.282Z,12.12
2019-05-22T07:41:21.932Z,12.10
2019-05-22T07:42:19.767Z,12.09
2019-05-22T07:43:19.859Z,12.09
2019-05-22T07:44:19.854Z,11.99
2019-05-22T07:45:19.858Z,12.02
2019-05-22T07:46:19.962Z,11.96
2019-05-22T07:47:19.882Z,12.01
2019-05-22T07:48:22.026Z,12.20
2019-05-22T07:49:19.622Z,12.27
2019-05-22T07:50:20.064Z,12.12
2019-05-22T07:51:21.251Z,11.95
2019-05-22T07:52:19.500Z,12.20
2019-05-22T07:53:19.647Z,12.13
2019-05-22T07:54:19.950Z,11.98
2019-05-22T07:55:19.637Z,11.95
2019-05-22T07:56:19.454Z,11.96
2019-05-22T07:57:19.449Z,12.19
2019-05-22T07:58:19.772Z,12.31
2019-05-22T07:59:19.674Z,12.46
2019-05-22T08:00:19.479Z,12.41
2019-05-22T08:01:21.069Z,12.45
2019-05-22T08:02:19.422Z,12.38
2019-05-22T08:03:19.497Z,12.29
2019-05-22T08:04:19.614Z,12.13
2019-05-22T08:05:19.475Z,12.14
2019-05-22T08:06:19.363Z,11.99
2019-05-22T08:07:19.499Z,12.13
2019-05-22T08:08:19.709Z,12.38
2019-05-22T08:09:19.646Z,12.35
2019-05-22T08:10:19.291Z,12.17
2019-05-22T08:11:19.535Z,12.14
2019-05-22T08:12:19.504Z,12.17
2019-05-22T08:13:19.592Z,12.27
2019-05-22T08:14:19.463Z,12.10
2019-05-22T08:15:19.363Z,12.17
2019-05-22T08:16:19.951Z,12.17
2019-05-22T08:17:19.270Z,12.19
2019-05-22T08:18:19.585Z,12.39
2019-05-22T08:19:19.167Z,12.46
2019-05-22T08:20:20.320Z,12.28
2019-05-22T08:21:23.233Z,12.17
2019-05-22T08:22:19.338Z,12.31
2019-05-22T08:23:19.166Z,12.42
2019-05-22T08:24:19.428Z,12.56
2019-05-22T08:25:19.256Z,12.75
2019-05-22T08:26:20.984Z,12.79
2019-05-22T08:27:19.207Z,12.56
2019-05-22T08:28:19.119Z,12.67
2019-05-22T08:29:19.040Z,12.77
2019-05-22T08:30:19.034Z,12.57
2019-05-22T08:31:21.375Z,12.59
2019-05-22T08:32:19.264Z,12.68
2019-05-22T08:33:19.040Z,12.90
2019-05-22T08:34:18.970Z,12.85
2019-05-22T08:35:18.970Z,12.83
2019-05-22T08:36:18.994Z,12.74
2019-05-22T08:37:18.972Z,12.75
2019-05-22T08:38:18.915Z,12.78
2019-05-22T08:39:18.911Z,12.74
2019-05-22T08:40:18.941Z,12.79
2019-05-22T08:41:19.214Z,12.77
2019-05-22T08:42:18.920Z,12.75
2019-05-22T08:43:18.883Z,12.52
2019-05-22T08:44:18.968Z,12.42
2019-05-22T08:45:18.878Z,12.38
2019-05-22T08:46:18.872Z,12.52
2019-05-22T08:47:19.049Z,12.60
2019-05-22T08:48:18.837Z,12.49
2019-05-22T08:49:18.792Z,12.60
2019-05-22T08:50:18.783Z,12.59
2019-05-22T08:51:19.776Z,12.59
2019-05-22T08:52:23.619Z,12.65
2019-05-22T08:53:19.759Z,12.85
2019-05-22T08:54:19.458Z,12.67
2019-05-22T08:55:18.742Z,12.71
2019-05-22T08:56:18.745Z,12.93
2019-05-22T08:57:18.723Z,12.82
2019-05-22T08:58:18.741Z,13.03
2019-05-22T08:59:20.074Z,13.20
2019-05-22T09:00:18.670Z,13.28
2019-05-22T09:01:19.259Z,13.44
2019-05-22T09:02:18.676Z,13.42
2019-05-22T09:03:18.642Z,13.41
2019-05-22T09:04:18.624Z,13.52
2019-05-22T09:05:21.320Z,13.59
2019-05-22T09:06:18.721Z,14.29
2019-05-22T09:07:18.630Z,14.40
2019-05-22T09:08:18.607Z,14.72
2019-05-22T09:09:18.589Z,15.17
2019-05-22T09:10:18.864Z,14.61
2019-05-22T09:11:18.636Z,14.46
2019-05-22T09:12:18.534Z,14.25
2019-05-22T09:13:18.596Z,14.15
2019-05-22T09:14:18.552Z,14.35
2019-05-22T09:15:18.535Z,14.36
2019-05-22T09:16:19.331Z,14.00
2019-05-22T09:17:18.533Z,13.75
2019-05-22T09:18:18.500Z,13.78
2019-05-22T09:19:18.457Z,13.44
2019-05-22T09:20:18.442Z,13.59
2019-05-22T09:21:18.471Z,14.02
2019-05-22T09:22:18.502Z,14.65
2019-05-22T09:23:18.470Z,14.35
2019-05-22T09:24:18.796Z,15.29
2019-05-22T09:25:18.397Z,15.94
2019-05-22T09:26:18.468Z,15.57
2019-05-22T09:27:18.371Z,15.41
2019-05-22T09:28:18.394Z,15.29
2019-05-22T09:29:18.405Z,15.67
2019-05-22T09:30:18.352Z,16.82
2019-05-22T09:31:18.328Z,18.08
2019-05-22T09:32:18.363Z,18.03
2019-05-22T09:33:18.298Z,16.61
2019-05-22T09:34:18.318Z,15.67
2019-05-22T09:35:18.304Z,15.17
2019-05-22T09:36:18.286Z,16.15
2019-05-22T09:37:19.245Z,15.68
2019-05-22T09:38:18.267Z,16.27
2019-05-22T09:39:18.358Z,16.86
2019-05-22T09:40:18.238Z,16.94
2019-05-22T09:41:18.220Z,17.43
2019-05-22T09:42:18.257Z,18.85
2019-05-22T09:43:18.216Z,19.25
2019-05-22T09:44:18.182Z,19.16
2019-05-22T09:45:18.228Z,17.86
2019-05-22T09:46:18.158Z,16.15
2019-05-22T09:47:18.786Z,16.05
2019-05-22T09:48:18.162Z,15.84
2019-05-22T09:49:18.136Z,15.90
2019-05-22T09:50:18.132Z,15.44
2019-05-22T09:51:18.256Z,14.86
2019-05-22T09:52:18.826Z,15.01
2019-05-22T09:53:18.186Z,16.76
2019-05-22T09:54:18.081Z,17.31
2019-05-22T09:55:18.074Z,16.75
2019-05-22T09:56:18.057Z,17.00
2019-05-22T09:57:18.782Z,18.63
2019-05-22T09:58:18.031Z,19.77
2019-05-22T09:59:18.041Z,20.67
2019-05-22T10:00:18.011Z,20.58
2019-05-22T10:01:18.015Z,20.98
2019-05-22T10:02:18.052Z,20.88
2019-05-22T10:03:17.982Z,19.74
2019-05-22T10:04:17.962Z,20.54
2019-05-22T10:05:17.965Z,20.41
2019-05-22T10:06:21.071Z,19.62
2019-05-22T10:07:17.973Z,18.21
2019-05-22T10:08:17.932Z,18.82
2019-05-22T10:09:17.966Z,19.19
2019-05-22T10:10:17.983Z,19.02
2019-05-22T10:11:17.937Z,18.66
2019-05-22T10:12:17.897Z,17.33
2019-05-22T10:13:17.943Z,16.67
2019-05-22T10:14:17.864Z,17.04
2019-05-22T10:15:18.093Z,16.73
2019-05-22T10:16:17.865Z,16.57
2019-05-22T10:17:17.892Z,16.25
2019-05-22T10:18:17.834Z,17.49
2019-05-22T10:19:17.842Z,16.41
2019-05-22T10:20:17.853Z,16.58
2019-05-22T10:21:17.838Z,17.49
2019-05-22T10:22:17.938Z,17.68
2019-05-22T10:23:17.817Z,17.21
2019-05-22T10:24:17.835Z,17.75
2019-05-22T10:25:17.802Z,17.22
2019-05-22T10:26:17.727Z,16.97
2019-05-22T10:27:17.781Z,16.96
2019-05-22T10:28:17.739Z,16.89
2019-05-22T10:29:17.755Z,17.18
2019-05-22T10:30:17.690Z,18.42
2019-05-22T10:31:18.007Z,17.68
2019-05-22T10:32:17.710Z,17.79
2019-05-22T10:33:17.675Z,18.87
2019-05-22T10:34:17.644Z,18.52
2019-05-22T10:35:17.655Z,19.29
2019-05-22T10:36:17.618Z,20.14
2019-05-22T10:37:17.639Z,21.09
2019-05-22T10:38:17.589Z,20.99
2019-05-22T10:39:17.595Z,21.01
2019-05-22T10:40:17.617Z,21.28
2019-05-22T10:41:17.969Z,20.38
2019-05-22T10:42:19.820Z,19.54
2019-05-22T10:43:17.552Z,17.96
2019-05-22T10:44:17.556Z,18.35
2019-05-22T10:45:17.660Z,18.54
2019-05-22T10:46:17.629Z,18.15
2019-05-22T10:47:20.537Z,18.17
2019-05-22T10:48:17.492Z,17.55
2019-05-22T10:49:17.477Z,18.60
2019-05-22T10:50:18.414Z,20.13
2019-05-22T10:51:17.497Z,20.17
2019-05-22T10:52:17.487Z,19.74
2019-05-22T10:53:32.248Z,20.38
2019-05-22T10:54:18.430Z,19.14
2019-05-22T10:55:17.448Z,18.52
2019-05-22T10:56:17.474Z,19.32
2019-05-22T10:57:17.522Z,19.55
2019-05-22T10:58:17.551Z,19.83
2019-05-22T10:59:17.399Z,19.98
2019-05-22T11:00:17.392Z,17.87
2019-05-22T11:01:17.365Z,16.94
2019-05-22T11:02:17.466Z,17.95
2019-05-22T11:03:17.552Z,18.88
2019-05-22T11:04:19.428Z,19.18
2019-05-22T11:05:17.311Z,19.23
2019-05-22T11:06:17.305Z,19.92
2019-05-22T11:07:18.296Z,20.42
2019-05-22T11:08:17.274Z,19.77
2019-05-22T11:09:17.286Z,19.32
2019-05-22T11:10:17.287Z,18.00
2019-05-22T11:11:17.255Z,17.81
2019-05-22T11:12:17.272Z,18.65
2019-05-22T11:13:17.225Z,19.83
2019-05-22T11:14:17.223Z,20.47
2019-05-22T11:15:17.392Z,19.29
2019-05-22T11:16:17.190Z,19.10
2019-05-22T11:17:17.222Z,19.40
2019-05-22T11:18:17.179Z,20.02
2019-05-22T11:19:17.285Z,19.54
2019-05-22T11:20:17.151Z,20.52
2019-05-22T11:21:17.141Z,20.48
2019-05-22T11:22:17.153Z,21.16
2019-05-22T11:23:17.117Z,22.37
2019-05-22T11:24:17.136Z,22.27
2019-05-22T11:25:17.110Z,21.84
2019-05-22T11:26:17.098Z,21.28
2019-05-22T11:27:17.121Z,20.85
2019-05-22T11:28:17.062Z,19.62
2019-05-22T11:29:17.189Z,18.69
2019-05-22T11:30:17.080Z,19.88
2019-05-22T11:31:17.025Z,19.68
2019-05-22T11:32:17.052Z,19.73
2019-05-22T11:33:17.021Z,19.92
2019-05-22T11:34:17.005Z,20.38
2019-05-22T11:35:17.002Z,20.69
2019-05-22T11:36:17.026Z,19.95
2019-05-22T11:37:17.766Z,18.75
2019-05-22T11:38:16.981Z,19.51
2019-05-22T11:39:16.959Z,19.50
2019-05-22T11:40:16.951Z,18.05
2019-05-22T11:41:16.935Z,17.46
2019-05-22T11:42:16.942Z,17.81
2019-05-22T11:43:16.908Z,17.78
2019-05-22T11:44:16.891Z,17.87
2019-05-22T11:45:16.887Z,17.93
2019-05-22T11:46:16.937Z,17.62
2019-05-22T11:47:16.908Z,17.54
2019-05-22T11:48:16.850Z,18.07
2019-05-22T11:49:16.970Z,19.26
2019-05-22T11:50:16.894Z,19.86
2019-05-22T11:51:16.832Z,21.09
2019-05-22T11:52:16.843Z,22.39
2019-05-22T11:53:16.801Z,22.85
2019-05-22T11:54:16.807Z,21.42
2019-05-22T11:55:16.826Z,19.77
2019-05-22T11:56:16.770Z,19.73
2019-05-22T11:57:16.794Z,20.03
2019-05-22T11:58:16.746Z,20.79
2019-05-22T11:59:16.736Z,20.85
2019-05-22T12:00:16.728Z,20.67
2019-05-22T12:01:16.741Z,20.17
2019-05-22T12:02:16.724Z,20.11
2019-05-22T12:03:16.691Z,20.57
2019-05-22T12:04:16.735Z,20.92
2019-05-22T12:05:16.672Z,20.43
2019-05-22T12:06:16.689Z,20.80
2019-05-22T12:07:19.024Z,19.50
2019-05-22T12:08:16.714Z,18.66
2019-05-22T12:09:16.775Z,19.21
2019-05-22T12:10:16.626Z,20.85
2019-05-22T12:11:16.610Z,20.64
2019-05-22T12:12:16.674Z,19.91
2019-05-22T12:13:16.616Z,19.69
2019-05-22T12:14:16.605Z,19.41
2019-05-22T12:15:16.572Z,18.67
2019-05-22T12:16:16.546Z,19.73
2019-05-22T12:17:16.566Z,20.76
2019-05-22T12:18:16.530Z,22.10
2019-05-22T12:19:16.530Z,23.35
2019-05-22T12:20:16.560Z,24.13
2019-05-22T12:21:16.641Z,22.82
2019-05-22T12:22:19.887Z,21.59
2019-05-22T12:23:16.564Z,20.62
2019-05-22T12:24:26.946Z,20.61
2019-05-22T12:25:17.480Z,20.89
2019-05-22T12:26:16.443Z,21.43
2019-05-22T12:27:16.460Z,21.32
2019-05-22T12:28:16.492Z,20.94
2019-05-22T12:29:17.284Z,22.42
2019-05-22T12:30:16.543Z,23.40
2019-05-22T12:31:16.408Z,21.46
2019-05-22T12:32:16.461Z,20.39
2019-05-22T12:33:16.402Z,20.11
2019-05-22T12:34:16.995Z,19.84
2019-05-22T12:35:16.452Z,20.17
2019-05-22T12:36:16.350Z,19.81
2019-05-22T12:37:16.347Z,20.03
2019-05-22T12:38:16.348Z,21.68
2019-05-22T12:39:16.320Z,22.30
2019-05-22T12:40:16.383Z,22.82
2019-05-22T12:41:16.308Z,20.88
2019-05-22T12:42:16.365Z,20.70
2019-05-22T12:43:17.308Z,21.53
2019-05-22T12:44:16.288Z,20.62
2019-05-22T12:45:16.302Z,22.20
2019-05-22T12:46:16.262Z,22.20
2019-05-22T12:47:16.242Z,21.06
2019-05-22T12:48:16.774Z,21.56
2019-05-22T12:49:16.206Z,22.33
2019-05-22T12:50:16.392Z,22.15
2019-05-22T12:51:16.207Z,21.12
2019-05-22T12:52:16.212Z,20.17